Time;durP1;ratioP1;P1;durP2;ratioP2;P2;SDS_P1;SDS_P2;PMS_P1;PMS_P2;Temp;Humidity;BMP_temperature;BMP_pressure;BME280_temperature;BME280_humidity;BME280_pressure;Samples;Min_cycle;Max_cycle;Signal;HPM_P1;HPM_P2
2022/05/13 00:02:17;;;;;;;16.05;11.43;;;;;;;;;;5014477;28;20050;-70
2022/05/13 00:04:45;;;;;;;14.23;10.20;;;;;;;;;;5014487;28;20052;-70
2022/05/13 00:07:12;;;;;;;13.55;9.75;;;;;;;;;;5014952;28;20054;-70
2022/05/13 00:12:24;;;;;;;12.93;9.68;;;;;;;;;;5014659;28;20056;-69
2022/05/13 00:14:52;;;;;;;12.10;9.02;;;;;;;;;;5014464;28;20057;-69
2022/05/13 00:17:21;;;;;;;11.45;8.82;;;;;;;;;;5014494;28;20487;-70
2022/05/13 00:19:48;;;;;;;13.02;9.48;;;;;;;;;;5014589;28;20511;-69
2022/05/13 00:22:16;;;;;;;13.77;9.23;;;;;;;;;;5014388;28;20049;-70
2022/05/13 00:24:43;;;;;;;13.30;9.55;;;;;;;;;;5014140;28;20050;-69
2022/05/13 00:27:09;;;;;;;13.07;9.15;;;;;;;;;;5014256;28;20068;-69
2022/05/13 00:29:36;;;;;;;14.55;10.30;;;;;;;;;;5014111;28;20045;-70
2022/05/13 00:32:04;;;;;;;13.30;10.25;;;;;;;;;;5013955;28;20629;-70
2022/05/13 00:34:33;;;;;;;12.13;9.50;;;;;;;;;;5014066;28;20133;-68
2022/05/13 00:37:00;;;;;;;12.98;10.30;;;;;;;;;;5013952;28;20049;-69
2022/05/13 00:39:27;;;;;;;13.93;10.95;;;;;;;;;;5013883;28;20050;-70
2022/05/13 00:41:54;;;;;;;17.35;12.43;;;;;;;;;;5013935;28;20065;-71
2022/05/13 00:44:22;;;;;;;19.50;14.02;;;;;;;;;;5014314;28;20418;-69
2022/05/13 00:46:49;;;;;;;20.08;14.57;;;;;;;;;;5014183;28;20057;-69
2022/05/13 00:49:17;;;;;;;19.33;13.82;;;;;;;;;;5013776;28;20045;-68
2022/05/13 00:51:48;;;;;;;20.70;13.60;;;;;;;;;;5013316;28;20475;-68
2022/05/13 00:54:17;;;;;;;20.00;13.68;;;;;;;;;;5013685;28;20153;-69
2022/05/13 00:56:47;;;;;;;16.33;12.45;;;;;;;;;;5013207;28;20045;-68
2022/05/13 00:59:17;;;;;;;17.95;11.77;;;;;;;;;;5013694;28;20491;-68
2022/05/13 01:01:45;;;;;;;17.40;12.23;;;;;;;;;;5013485;28;20064;-67
2022/05/13 01:04:14;;;;;;;17.33;11.63;;;;;;;;;;5013296;28;20075;-70
2022/05/13 01:06:46;;;;;;;16.65;10.85;;;;;;;;;;5013062;28;20072;-70
2022/05/13 01:09:13;;;;;;;13.27;10.50;;;;;;;;;;5013233;28;20104;-66
2022/05/13 01:11:42;;;;;;;13.95;10.70;;;;;;;;;;5013217;28;20418;-66
2022/05/13 01:14:15;;;;;;;12.65;9.77;;;;;;;;;;5013381;28;20081;-66
2022/05/13 01:19:26;;;;;;;13.02;9.05;;;;;;;;;;5013249;28;20053;-68
2022/05/13 01:21:55;;;;;;;12.25;9.23;;;;;;;;;;5013422;28;20049;-68
2022/05/13 01:24:23;;;;;;;12.88;9.48;;;;;;;;;;5013154;28;20565;-68
2022/05/13 01:26:50;;;;;;;13.32;9.05;;;;;;;;;;5012712;28;20042;-68
2022/05/13 01:29:17;;;;;;;12.65;9.25;;;;;;;;;;5012826;28;20048;-67
2022/05/13 01:31:44;;;;;;;13.50;9.07;;;;;;;;;;5012845;28;20523;-67
2022/05/13 01:34:13;;;;;;;10.35;8.70;;;;;;;;;;5012955;28;20050;-67
2022/05/13 01:36:41;;;;;;;12.25;8.93;;;;;;;;;;5012545;28;20144;-68
2022/05/13 01:39:10;;;;;;;11.77;8.70;;;;;;;;;;5012755;28;20041;-67
2022/05/13 01:41:37;;;;;;;13.07;9.25;;;;;;;;;;5012654;28;20050;-68
2022/05/13 01:44:04;;;;;;;13.50;8.80;;;;;;;;;;5012530;28;20076;-67
2022/05/13 01:46:31;;;;;;;11.35;9.32;;;;;;;;;;5005021;28;20042;-67
2022/05/13 01:48:58;;;;;;;11.35;9.30;;;;;;;;;;4993028;28;20060;-67
2022/05/13 01:51:25;;;;;;;13.45;9.18;;;;;;;;;;4993272;28;20555;-67
2022/05/13 01:53:53;;;;;;;12.27;9.15;;;;;;;;;;4992765;28;20054;-67
2022/05/13 01:56:21;;;;;;;12.20;8.98;;;;;;;;;;4992700;28;20052;-68
2022/05/13 01:58:48;;;;;;;13.35;9.43;;;;;;;;;;4992844;28;20056;-68
2022/05/13 02:01:15;;;;;;;13.40;9.20;;;;;;;;;;4993197;28;20053;-67
2022/05/13 02:03:45;;;;;;;12.27;8.93;;;;;;;;;;4993021;28;20065;-67
2022/05/13 02:06:13;;;;;;;11.77;9.07;;;;;;;;;;4993310;28;20094;-67
2022/05/13 02:08:40;;;;;;;12.02;9.20;;;;;;;;;;4993205;28;20042;-67
2022/05/13 02:11:07;;;;;;;12.77;9.65;;;;;;;;;;4992827;28;20058;-67
2022/05/13 02:13:36;;;;;;;13.05;10.68;;;;;;;;;;4993133;28;20050;-68
2022/05/13 02:16:04;;;;;;;12.88;10.02;;;;;;;;;;4992936;28;20445;-67
2022/05/13 02:18:31;;;;;;;15.73;9.68;;;;;;;;;;4992963;28;20050;-68
2022/05/13 02:20:58;;;;;;;12.63;10.10;;;;;;;;;;4992742;28;20050;-68
2022/05/13 02:23:25;;;;;;;13.88;10.30;;;;;;;;;;4995884;28;20507;-68
2022/05/13 02:25:59;;;;;;;13.00;8.90;;;;;;;;;;4996182;28;20057;-67
2022/05/13 02:28:26;;;;;;;12.60;9.75;;;;;;;;;;4996685;28;20051;-67
2022/05/13 02:30:55;;;;;;;12.93;10.07;;;;;;;;;;4996614;28;20052;-67
2022/05/13 02:33:22;;;;;;;14.77;10.25;;;;;;;;;;4996469;28;20105;-67
2022/05/13 02:35:49;;;;;;;11.45;9.65;;;;;;;;;;4996783;28;20399;-67
2022/05/13 02:38:17;;;;;;;13.32;10.25;;;;;;;;;;4996376;28;20046;-67
2022/05/13 02:43:29;;;;;;;12.43;9.27;;;;;;;;;;4996299;28;20136;-67
2022/05/13 02:45:57;;;;;;;12.23;9.75;;;;;;;;;;4998698;28;20056;-67
2022/05/13 02:48:25;;;;;;;14.00;10.40;;;;;;;;;;5016021;28;20052;-67
2022/05/13 02:50:52;;;;;;;13.07;9.70;;;;;;;;;;5015895;28;20054;-67
2022/05/13 02:53:19;;;;;;;12.40;9.80;;;;;;;;;;5016051;28;20439;-67
2022/05/13 02:55:46;;;;;;;12.23;9.18;;;;;;;;;;5015541;28;20068;-67
2022/05/13 02:58:13;;;;;;;14.07;9.35;;;;;;;;;;5015456;28;20072;-67
2022/05/13 03:00:40;;;;;;;12.52;9.80;;;;;;;;;;5015552;28;20064;-67
2022/05/13 03:03:09;;;;;;;12.27;9.43;;;;;;;;;;5015651;28;20388;-68
2022/05/13 03:05:36;;;;;;;11.50;8.00;;;;;;;;;;5015620;28;20513;-67
2022/05/13 03:08:04;;;;;;;11.80;8.18;;;;;;;;;;5015715;28;20061;-68
2022/05/13 03:10:32;;;;;;;11.52;8.25;;;;;;;;;;5015513;28;20053;-68
2022/05/13 03:13:00;;;;;;;10.07;7.88;;;;;;;;;;5015620;28;20541;-67
2022/05/13 03:15:28;;;;;;;11.88;8.00;;;;;;;;;;5014964;28;20054;-68
2022/05/13 03:17:56;;;;;;;11.27;8.30;;;;;;;;;;5015797;28;20058;-67
2022/05/13 03:20:25;;;;;;;11.45;8.25;;;;;;;;;;5015470;28;20054;-67
2022/05/13 03:22:53;;;;;;;12.68;8.00;;;;;;;;;;5015457;28;20077;-67
2022/05/13 03:25:21;;;;;;;11.68;9.52;;;;;;;;;;5014727;28;20045;-67
2022/05/13 03:27:49;;;;;;;11.10;8.43;;;;;;;;;;5015220;28;20041;-67
2022/05/13 03:30:18;;;;;;;11.07;8.77;;;;;;;;;;5015046;28;20527;-67
2022/05/13 03:32:45;;;;;;;11.18;8.60;;;;;;;;;;5015011;28;20135;-67
2022/05/13 03:35:15;;;;;;;11.13;8.82;;;;;;;;;;5014830;28;20129;-67
2022/05/13 03:37:43;;;;;;;12.10;9.00;;;;;;;;;;5015564;28;20414;-66
2022/05/13 03:40:13;;;;;;;11.90;8.82;;;;;;;;;;5014777;28;20054;-69
2022/05/13 03:42:40;;;;;;;14.05;9.95;;;;;;;;;;5014852;28;20054;-69
2022/05/13 03:45:09;;;;;;;12.43;9.50;;;;;;;;;;5014642;28;20046;-69
2022/05/13 03:47:36;;;;;;;12.40;9.23;;;;;;;;;;4998539;28;20053;-67
2022/05/13 03:50:04;;;;;;;13.85;10.05;;;;;;;;;;4994939;28;20042;-69
2022/05/13 03:52:31;;;;;;;13.63;10.70;;;;;;;;;;4995491;28;20077;-69
2022/05/13 03:55:00;;;;;;;14.52;10.40;;;;;;;;;;4994999;28;20385;-69
2022/05/13 03:57:27;;;;;;;12.40;8.77;;;;;;;;;;4995207;28;20393;-68
2022/05/13 03:59:54;;;;;;;14.23;9.05;;;;;;;;;;4995032;28;20046;-69
2022/05/13 04:02:21;;;;;;;10.45;7.75;;;;;;;;;;4995666;28;20058;-68
2022/05/13 04:10:18;;;;;;;11.07;6.63;;;;;;;;;;4996104;28;20128;-69
2022/05/13 04:18:14;;;;;;;9.95;6.15;;;;;;;;;;4995996;28;20061;-68
2022/05/13 04:20:41;;;;;;;8.55;6.18;;;;;;;;;;4994578;28;20156;-69
2022/05/13 04:23:08;;;;;;;9.27;6.90;;;;;;;;;;4994866;28;20050;-69
2022/05/13 04:25:36;;;;;;;7.88;6.38;;;;;;;;;;4994312;28;20137;-69
2022/05/13 04:28:03;;;;;;;8.15;6.32;;;;;;;;;;4994653;28;20057;-70
2022/05/13 04:30:30;;;;;;;8.63;5.75;;;;;;;;;;4994475;28;20456;-69
2022/05/13 04:32:57;;;;;;;9.25;6.93;;;;;;;;;;4994554;28;20534;-69
2022/05/13 04:35:24;;;;;;;7.57;5.20;;;;;;;;;;4994147;28;20050;-69
2022/05/13 04:37:51;;;;;;;8.20;5.70;;;;;;;;;;4994390;28;20129;-69
2022/05/13 04:40:18;;;;;;;7.18;4.78;;;;;;;;;;4994195;28;20046;-69
2022/05/13 04:42:52;;;;;;;8.43;5.82;;;;;;;;;;4994668;28;20129;-69
2022/05/13 04:45:24;;;;;;;7.22;5.43;;;;;;;;;;4993476;28;20054;-69
2022/05/13 04:50:40;;;;;;;8.52;5.45;;;;;;;;;;5014100;28;20176;-70
2022/05/13 04:53:08;;;;;;;8.70;5.47;;;;;;;;;;5014276;28;20487;-69
2022/05/13 04:55:36;;;;;;;8.90;6.13;;;;;;;;;;5013809;28;20056;-69
2022/05/13 04:58:05;;;;;;;8.93;6.50;;;;;;;;;;5013927;28;20418;-68
2022/05/13 05:00:32;;;;;;;9.20;6.43;;;;;;;;;;5013491;28;20049;-69
2022/05/13 05:02:59;;;;;;;9.88;6.57;;;;;;;;;;5014114;28;20049;-69
2022/05/13 05:05:27;;;;;;;10.00;6.50;;;;;;;;;;5014022;28;20042;-70
2022/05/13 05:07:54;;;;;;;9.80;5.97;;;;;;;;;;5014939;28;20411;-70
2022/05/13 05:10:21;;;;;;;7.93;6.00;;;;;;;;;;5014551;28;20465;-70
2022/05/13 05:12:49;;;;;;;9.93;6.28;;;;;;;;;;5013639;28;20049;-68
2022/05/13 05:15:18;;;;;;;10.27;6.43;;;;;;;;;;5013590;28;20076;-68
2022/05/13 05:17:45;;;;;;;10.27;5.53;;;;;;;;;;5013591;28;20399;-69
2022/05/13 05:20:12;;;;;;;8.68;6.13;;;;;;;;;;5013650;28;20418;-68
2022/05/13 05:22:39;;;;;;;8.32;5.57;;;;;;;;;;5013510;28;20124;-70
2022/05/13 05:25:07;;;;;;;10.20;6.47;;;;;;;;;;5013195;28;20056;-68
2022/05/13 05:27:36;;;;;;;8.80;6.28;;;;;;;;;;5013195;28;20069;-70
2022/05/13 05:30:04;;;;;;;7.63;5.78;;;;;;;;;;5014044;28;20057;-70
2022/05/13 05:32:33;;;;;;;9.20;6.57;;;;;;;;;;5013752;28;20045;-70
2022/05/13 05:35:00;;;;;;;10.43;6.78;;;;;;;;;;5013091;28;20046;-70
2022/05/13 05:37:27;;;;;;;9.40;6.53;;;;;;;;;;5013663;28;20128;-70
2022/05/13 05:39:54;;;;;;;10.35;7.03;;;;;;;;;;5013877;28;20136;-70
2022/05/13 05:42:21;;;;;;;9.88;6.55;;;;;;;;;;5013875;28;20080;-69
2022/05/13 05:44:48;;;;;;;11.52;7.53;;;;;;;;;;5013198;28;20406;-70
2022/05/13 05:47:16;;;;;;;9.30;7.03;;;;;;;;;;5013291;28;20396;-69
2022/05/13 05:49:44;;;;;;;11.30;7.18;;;;;;;;;;5030752;22;20182;-65
2022/05/13 05:52:11;;;;;;;10.40;7.70;;;;;;;;;;5032114;28;20064;-67
2022/05/13 05:57:22;;;;;;;11.63;7.43;;;;;;;;;;5000835;28;20123;-66
2022/05/13 05:59:49;;;;;;;11.07;7.50;;;;;;;;;;5032078;28;20045;-66
2022/05/13 06:02:17;;;;;;;11.90;7.57;;;;;;;;;;5032031;28;20049;-67
2022/05/13 06:04:46;;;;;;;9.63;7.15;;;;;;;;;;5031870;28;20041;-66
2022/05/13 06:07:15;;;;;;;11.02;7.15;;;;;;;;;;5031900;28;20079;-66
2022/05/13 06:09:45;;;;;;;10.00;7.30;;;;;;;;;;5031999;28;20387;-66
2022/05/13 06:12:13;;;;;;;9.47;7.17;;;;;;;;;;5032207;28;20050;-66
2022/05/13 06:14:40;;;;;;;10.23;7.07;;;;;;;;;;5031687;28;20049;-67
2022/05/13 06:17:08;;;;;;;9.90;7.13;;;;;;;;;;5031865;28;20061;-66
2022/05/13 06:19:35;;;;;;;11.85;7.90;;;;;;;;;;5032619;28;20491;-66
2022/05/13 06:22:04;;;;;;;10.38;7.13;;;;;;;;;;5031678;28;20148;-66
2022/05/13 06:24:31;;;;;;;12.00;9.05;;;;;;;;;;5032227;28;20560;-65
2022/05/13 06:26:58;;;;;;;13.20;8.27;;;;;;;;;;5031833;28;20509;-66
2022/05/13 06:29:27;;;;;;;10.88;8.07;;;;;;;;;;5031966;28;20053;-66
2022/05/13 06:31:54;;;;;;;14.70;10.30;;;;;;;;;;5032022;28;20388;-66
2022/05/13 06:34:23;;;;;;;10.65;7.80;;;;;;;;;;5032200;28;20053;-66
2022/05/13 06:36:51;;;;;;;11.30;7.97;;;;;;;;;;5031414;28;20054;-66
2022/05/13 06:39:20;;;;;;;13.50;9.10;;;;;;;;;;5031957;28;20041;-66
2022/05/13 06:41:47;;;;;;;12.95;9.18;;;;;;;;;;5031802;28;20049;-66
2022/05/13 06:44:15;;;;;;;12.40;9.00;;;;;;;;;;5031900;28;20049;-66
2022/05/13 06:46:42;;;;;;;13.77;9.50;;;;;;;;;;5031769;28;20421;-66
2022/05/13 06:49:11;;;;;;;14.25;10.57;;;;;;;;;;5031799;28;20049;-67
2022/05/13 06:51:40;;;;;;;14.98;9.65;;;;;;;;;;5031671;28;20053;-67
2022/05/13 06:54:09;;;;;;;11.93;9.50;;;;;;;;;;5031702;28;20080;-66
2022/05/13 06:56:41;;;;;;;17.35;14.32;;;;;;;;;;5031299;28;20107;-65
2022/05/13 06:59:08;;;;;;;13.27;10.45;;;;;;;;;;5031953;28;20366;-67
2022/05/13 07:01:36;;;;;;;12.65;9.05;;;;;;;;;;5031779;28;20059;-67
2022/05/13 07:04:03;;;;;;;12.50;9.93;;;;;;;;;;5031889;28;20049;-67
2022/05/13 07:06:30;;;;;;;15.07;10.85;;;;;;;;;;5031480;28;20049;-67
2022/05/13 07:08:57;;;;;;;14.80;10.52;;;;;;;;;;5033905;28;20050;-66
2022/05/13 07:11:24;;;;;;;11.63;9.57;;;;;;;;;;5035260;28;20132;-66
2022/05/13 07:13:53;;;;;;;13.65;9.18;;;;;;;;;;5036073;28;20056;-66
2022/05/13 07:16:20;;;;;;;13.60;9.80;;;;;;;;;;5035129;28;20046;-66
2022/05/13 07:18:47;;;;;;;12.02;9.52;;;;;;;;;;5035404;28;20046;-67
2022/05/13 07:21:15;;;;;;;12.27;8.93;;;;;;;;;;5035461;28;20666;-65
2022/05/13 07:23:42;;;;;;;11.88;7.85;;;;;;;;;;5035228;28;20056;-66
2022/05/13 07:26:09;;;;;;;13.05;9.90;;;;;;;;;;5034818;28;20067;-65
2022/05/13 07:28:38;;;;;;;13.95;8.93;;;;;;;;;;5035055;28;20085;-67
2022/05/13 07:31:07;;;;;;;12.23;8.32;;;;;;;;;;5034777;28;20057;-67
2022/05/13 07:33:34;;;;;;;10.52;7.30;;;;;;;;;;5035342;28;20045;-66
2022/05/13 07:36:01;;;;;;;11.77;7.32;;;;;;;;;;5034284;28;20042;-66
2022/05/13 07:38:30;;;;;;;9.38;6.70;;;;;;;;;;5034939;28;20051;-66
2022/05/13 07:43:48;;;;;;;9.75;6.18;;;;;;;;;;5019961;28;20049;-65
2022/05/13 07:46:16;;;;;;;11.07;7.20;;;;;;;;;;5029084;28;20074;-65
2022/05/13 07:48:43;;;;;;;10.88;6.88;;;;;;;;;;5015067;28;20092;-66
2022/05/13 07:51:11;;;;;;;8.60;6.70;;;;;;;;;;5014489;28;20052;-65
2022/05/13 07:53:38;;;;;;;10.30;6.97;;;;;;;;;;5014828;28;20445;-66
2022/05/13 07:56:08;;;;;;;9.38;7.03;;;;;;;;;;5014246;28;20049;-66
2022/05/13 07:58:35;;;;;;;11.13;7.35;;;;;;;;;;5014678;28;20487;-66
2022/05/13 08:01:02;;;;;;;10.68;6.97;;;;;;;;;;5014544;28;20072;-65
2022/05/13 08:03:31;;;;;;;9.07;6.75;;;;;;;;;;5014561;28;20049;-65
2022/05/13 08:06:03;;;;;;;7.88;6.35;;;;;;;;;;5014095;28;20064;-66
2022/05/13 08:08:32;;;;;;;10.13;6.97;;;;;;;;;;5014552;28;20068;-66
2022/05/13 08:11:01;;;;;;;8.60;6.78;;;;;;;;;;5014273;28;20056;-66
2022/05/13 08:13:31;;;;;;;9.35;6.57;;;;;;;;;;5014262;28;20064;-66
2022/05/13 08:15:58;;;;;;;11.07;7.60;;;;;;;;;;5014232;28;20120;-66
2022/05/13 08:18:25;;;;;;;9.13;6.60;;;;;;;;;;5027266;28;20445;-66
2022/05/13 08:20:54;;;;;;;9.95;6.65;;;;;;;;;;5032926;28;20075;-66
2022/05/13 08:23:21;;;;;;;10.85;6.57;;;;;;;;;;5033606;28;20053;-66
2022/05/13 08:25:49;;;;;;;9.68;6.30;;;;;;;;;;5033591;28;20053;-66
2022/05/13 08:28:18;;;;;;;9.55;7.15;;;;;;;;;;5033827;28;20509;-67
2022/05/13 08:30:45;;;;;;;8.40;6.22;;;;;;;;;;5034055;28;20453;-65
2022/05/13 08:33:13;;;;;;;9.20;6.75;;;;;;;;;;5033768;28;20088;-66
2022/05/13 08:35:44;;;;;;;9.65;8.10;;;;;;;;;;5033660;28;20128;-66
2022/05/13 08:38:13;;;;;;;9.95;7.20;;;;;;;;;;5033705;28;20418;-66
2022/05/13 08:41:01;;;;;;;9.02;6.93;;;;;;;;;;5033140;28;20049;-67
2022/05/13 08:43:34;;;;;;;10.15;7.32;;;;;;;;;;5033721;28;20685;-66
2022/05/13 08:46:07;;;;;;;9.15;7.13;;;;;;;;;;5033367;28;20075;-66
2022/05/13 08:48:41;;;;;;;9.27;7.18;;;;;;;;;;5033419;28;20064;-66
2022/05/13 08:51:15;;;;;;;10.05;6.57;;;;;;;;;;5033458;28;20053;-66
2022/05/13 08:53:53;;;;;;;10.40;6.95;;;;;;;;;;5033539;28;20053;-66
2022/05/13 08:56:26;;;;;;;11.80;7.35;;;;;;;;;;5033157;28;20051;-66
2022/05/13 08:59:00;;;;;;;9.45;7.25;;;;;;;;;;5033348;28;20464;-66
2022/05/13 09:01:30;;;;;;;11.15;7.72;;;;;;;;;;5033109;28;20545;-67
2022/05/13 09:03:59;;;;;;;;;;;;;;;;;;5033323;28;20384;-65
2022/05/13 09:06:36;;;;;;;10.85;8.23;;;;;;;;;;5032771;28;19921;-65
2022/05/13 09:09:07;;;;;;;13.00;9.13;;;;;;;;;;5033183;28;20474;-66
2022/05/13 09:11:40;;;;;;;11.90;8.43;;;;;;;;;;5032791;28;20055;-65
2022/05/13 09:14:18;;;;;;;14.15;8.80;;;;;;;;;;5032832;28;20080;-65
2022/05/13 09:16:55;;;;;;;13.80;10.60;;;;;;;;;;5032755;28;20128;-66
2022/05/13 09:19:31;;;;;;;18.35;12.98;;;;;;;;;;5032832;28;20060;-65
2022/05/13 09:21:58;;;;;;;13.60;9.32;;;;;;;;;;5032696;28;20055;-66
2022/05/13 09:24:26;;;;;;;12.82;8.75;;;;;;;;;;5032548;28;20049;-65
2022/05/13 09:26:54;;;;;;;12.30;8.80;;;;;;;;;;5032499;28;20068;-65
2022/05/13 09:29:21;;;;;;;15.85;8.55;;;;;;;;;;5033088;28;20136;-65
2022/05/13 09:32:02;;;;;;;11.82;8.10;;;;;;;;;;5032645;28;20049;-66
2022/05/13 09:34:34;;;;;;;13.13;7.85;;;;;;;;;;5032635;28;20172;-65
2022/05/13 09:37:07;;;;;;;13.40;10.18;;;;;;;;;;5032379;28;20045;-66
2022/05/13 09:39:38;;;;;;;13.82;8.98;;;;;;;;;;5032349;28;20093;-66
2022/05/13 09:42:26;;;;;;;12.27;8.43;;;;;;;;;;5032289;28;20049;-65
2022/05/13 09:45:12;;;;;;;15.98;10.05;;;;;;;;;;5032084;28;20054;-66
2022/05/13 09:47:39;;;;;;;13.18;8.60;;;;;;;;;;5015441;28;20057;-67
2022/05/13 09:50:25;;;;;;;13.55;9.20;;;;;;;;;;5012352;28;20053;-66
2022/05/13 09:52:53;;;;;;;15.85;11.25;;;;;;;;;;5012542;28;20054;-65
2022/05/13 09:55:32;;;;;;;11.38;7.50;;;;;;;;;;5012505;28;20509;-65
2022/05/13 09:58:02;;;;;;;11.80;8.40;;;;;;;;;;5012504;28;20058;-66
2022/05/13 10:00:31;;;;;;;13.43;9.57;;;;;;;;;;5012684;28;20506;-66
2022/05/13 10:03:17;;;;;;;10.82;6.68;;;;;;;;;;5012758;28;20314;-66
2022/05/13 10:05:44;;;;;;;9.70;5.85;;;;;;;;;;5012243;28;20050;-65
2022/05/13 10:08:18;;;;;;;8.30;5.78;;;;;;;;;;5012210;28;20057;-67
2022/05/13 10:13:59;;;;;;;7.97;5.68;;;;;;;;;;5012705;28;20057;-66
2022/05/13 10:16:33;;;;;;;9.15;5.82;;;;;;;;;;5012000;28;20104;-66
2022/05/13 10:19:06;;;;;;;11.40;6.20;;;;;;;;;;5012259;28;20053;-67
2022/05/13 10:21:37;;;;;;;10.27;7.00;;;;;;;;;;5012079;28;20060;-65
2022/05/13 10:24:21;;;;;;;8.93;6.40;;;;;;;;;;5012207;28;20045;-66
2022/05/13 10:26:51;;;;;;;8.65;5.85;;;;;;;;;;5011907;28;20046;-66
2022/05/13 10:29:22;;;;;;;10.90;6.30;;;;;;;;;;5012101;28;20050;-67
2022/05/13 10:31:50;;;;;;;11.40;5.40;;;;;;;;;;5012313;28;20495;-66
2022/05/13 10:34:25;;;;;;;9.50;5.85;;;;;;;;;;5012105;28;20056;-66
2022/05/13 10:36:59;;;;;;;9.75;6.00;;;;;;;;;;5012015;28;20045;-65
2022/05/13 10:39:37;;;;;;;11.07;6.70;;;;;;;;;;5012152;28;20050;-66
2022/05/13 10:42:12;;;;;;;11.77;6.50;;;;;;;;;;5012185;28;20141;-66
2022/05/13 10:44:43;;;;;;;10.40;6.70;;;;;;;;;;5015424;28;20050;-65
2022/05/13 10:47:14;;;;;;;9.85;6.00;;;;;;;;;;5028922;28;20057;-66
2022/05/13 10:49:44;;;;;;;8.43;5.13;;;;;;;;;;5035665;28;20049;-66
2022/05/13 10:52:24;;;;;;;9.70;6.25;;;;;;;;;;5035542;28;20054;-65
2022/05/13 10:54:55;;;;;;;8.40;5.13;;;;;;;;;;5035459;28;20056;-66
2022/05/13 10:57:33;;;;;;;7.53;5.53;;;;;;;;;;5035435;28;20279;-65
2022/05/13 11:00:14;;;;;;;7.15;4.95;;;;;;;;;;5035448;28;20115;-66
2022/05/13 11:03:17;;;;;;;8.90;5.43;;;;;;;;;;5035714;28;20058;-66
2022/05/13 11:05:56;;;;;;;7.93;5.40;;;;;;;;;;5033614;28;20057;-66
2022/05/13 11:08:29;;;;;;;9.63;5.97;;;;;;;;;;5035286;28;20081;-67
2022/05/13 11:11:04;;;;;;;9.57;5.60;;;;;;;;;;5035531;28;20049;-65
2022/05/13 11:13:46;;;;;;;8.50;5.60;;;;;;;;;;5035277;28;20133;-65
2022/05/13 11:16:23;;;;;;;7.57;5.38;;;;;;;;;;5034984;28;20092;-67
2022/05/13 11:19:00;;;;;;;8.82;5.97;;;;;;;;;;5035063;28;20065;-66
2022/05/13 11:21:40;;;;;;;9.32;6.63;;;;;;;;;;5035140;28;20064;-66
2022/05/13 11:27:14;;;;;;;8.32;5.05;;;;;;;;;;5035079;28;20048;-66
2022/05/13 11:29:48;;;;;;;8.95;5.75;;;;;;;;;;5034862;28;20482;-66
2022/05/13 11:32:24;;;;;;;9.98;5.78;;;;;;;;;;5034992;28;20049;-66
2022/05/13 11:35:11;;;;;;;9.05;5.88;;;;;;;;;;5034608;28;20060;-65
2022/05/13 11:37:40;;;;;;;9.75;5.70;;;;;;;;;;5035141;28;20063;-66
2022/05/13 11:40:26;;;;;;;12.60;6.23;;;;;;;;;;5035112;28;20080;-67
2022/05/13 11:43:19;;;;;;;9.77;5.70;;;;;;;;;;5036247;28;20045;-66
2022/05/13 11:46:26;;;;;;;8.25;5.47;;;;;;;;;;5033118;28;20487;-66
2022/05/13 11:48:57;;;;;;;10.00;6.00;;;;;;;;;;4973501;28;20547;-67
2022/05/13 11:51:28;;;;;;;10.02;6.13;;;;;;;;;;5019998;22;20061;-70
2022/05/13 11:54:16;;;;;;;8.40;6.35;;;;;;;;;;5015099;28;20054;-69
2022/05/13 11:56:46;;;;;;;8.27;5.70;;;;;;;;;;5014847;28;20058;-69
2022/05/13 11:59:46;;;;;;;9.88;6.22;;;;;;;;;;5015023;28;20499;-69
2022/05/13 12:02:32;;;;;;;9.38;6.35;;;;;;;;;;4995314;28;20062;-70
2022/05/13 12:05:08;;;;;;;8.98;5.88;;;;;;;;;;4992565;28;20064;-69
2022/05/13 12:07:40;;;;;;;10.48;6.53;;;;;;;;;;4995668;28;20065;-69
2022/05/13 12:10:12;;;;;;;8.55;5.80;;;;;;;;;;4995649;28;20058;-69
2022/05/13 12:12:52;;;;;;;7.70;5.88;;;;;;;;;;4995307;28;20050;-69
2022/05/13 12:15:44;;;;;;;8.73;5.95;;;;;;;;;;4994636;28;20118;-70
2022/05/13 12:18:29;;;;;;;9.80;6.65;;;;;;;;;;4994961;28;20053;-70
2022/05/13 12:21:10;;;;;;;9.50;7.15;;;;;;;;;;4995037;28;20054;-70
2022/05/13 12:23:41;;;;;;;10.15;6.75;;;;;;;;;;4994993;28;20070;-69
2022/05/13 12:26:10;;;;;;;8.80;6.13;;;;;;;;;;4994782;28;20056;-70
2022/05/13 12:29:00;;;;;;;9.50;6.60;;;;;;;;;;4995152;28;20081;-70
2022/05/13 12:31:48;;;;;;;9.15;6.55;;;;;;;;;;4994778;28;20046;-70
2022/05/13 12:37:35;;;;;;;12.60;6.15;;;;;;;;;;4995332;28;20176;-71
2022/05/13 12:40:13;;;;;;;10.77;6.30;;;;;;;;;;4994790;28;20137;-71
2022/05/13 12:42:50;;;;;;;8.15;6.40;;;;;;;;;;4995249;28;20050;-70
2022/05/13 12:45:23;;;;;;;10.23;7.20;;;;;;;;;;4994854;28;20125;-70
2022/05/13 12:47:59;;;;;;;11.50;7.18;;;;;;;;;;4994598;28;20105;-69
2022/05/13 12:50:40;;;;;;;9.63;6.00;;;;;;;;;;4994459;28;20057;-70
2022/05/13 12:53:32;;;;;;;12.38;7.65;;;;;;;;;;4994520;28;20517;-70
2022/05/13 12:56:01;;;;;;;9.05;6.03;;;;;;;;;;4994265;28;20488;-70
2022/05/13 12:58:31;;;;;;;8.63;6.30;;;;;;;;;;4994319;28;20057;-69
2022/05/13 13:00:59;;;;;;;9.55;6.65;;;;;;;;;;4994561;28;20089;-69
2022/05/13 13:03:26;;;;;;;8.00;5.90;;;;;;;;;;4994708;28;20114;-69
2022/05/13 13:05:59;;;;;;;10.38;6.30;;;;;;;;;;4994205;28;20503;-70
2022/05/13 13:08:38;;;;;;;10.07;6.28;;;;;;;;;;4995080;28;20077;-70
2022/05/13 13:11:10;;;;;;;9.30;5.53;;;;;;;;;;4994829;28;20047;-69
2022/05/13 13:13:41;;;;;;;8.93;6.00;;;;;;;;;;4995138;28;20043;-69
2022/05/13 13:16:15;;;;;;;8.93;6.00;;;;;;;;;;4994812;28;20081;-69
2022/05/13 13:18:42;;;;;;;9.30;6.07;;;;;;;;;;4995139;28;20062;-70
2022/05/13 13:21:13;;;;;;;10.60;6.75;;;;;;;;;;4995225;28;20050;-69
2022/05/13 13:23:42;;;;;;;8.13;5.65;;;;;;;;;;4995184;28;20052;-69
2022/05/13 13:26:13;;;;;;;9.15;6.10;;;;;;;;;;4994232;28;20087;-69
2022/05/13 13:28:43;;;;;;;8.57;5.93;;;;;;;;;;4994189;28;20047;-70
2022/05/13 13:31:14;;;;;;;9.23;5.90;;;;;;;;;;4994546;28;20523;-70
2022/05/13 13:33:47;;;;;;;8.80;5.70;;;;;;;;;;4994710;28;20080;-70
2022/05/13 13:36:18;;;;;;;9.40;6.00;;;;;;;;;;4994450;28;20482;-71
2022/05/13 13:38:50;;;;;;;7.63;5.35;;;;;;;;;;4994964;28;20100;-69
2022/05/13 13:41:24;;;;;;;8.98;5.40;;;;;;;;;;4994498;28;20086;-71
2022/05/13 13:43:54;;;;;;;10.57;5.55;;;;;;;;;;4994576;28;20054;-70
2022/05/13 13:46:29;;;;;;;9.85;5.68;;;;;;;;;;4992820;28;20050;-69
2022/05/13 13:48:59;;;;;;;9.05;5.90;;;;;;;;;;4993416;28;20057;-70
2022/05/13 13:51:29;;;;;;;9.00;5.50;;;;;;;;;;4993874;28;20054;-70
2022/05/13 13:54:01;;;;;;;7.22;5.30;;;;;;;;;;4994086;28;20526;-69
2022/05/13 13:56:30;;;;;;;7.35;5.07;;;;;;;;;;4993573;28;20053;-70
2022/05/13 13:59:20;;;;;;;9.68;5.68;;;;;;;;;;4993905;28;20447;-69
2022/05/13 14:01:49;;;;;;;7.72;5.10;;;;;;;;;;4993994;28;20414;-70
2022/05/13 14:04:22;;;;;;;11.40;6.40;;;;;;;;;;4994078;28;20050;-66
2022/05/13 14:06:52;;;;;;;8.13;5.55;;;;;;;;;;4993716;28;20133;-69
2022/05/13 14:09:23;;;;;;;9.43;5.80;;;;;;;;;;4993963;28;20509;-68
2022/05/13 14:11:51;;;;;;;9.27;5.57;;;;;;;;;;4993191;28;20089;-67
2022/05/13 14:14:19;;;;;;;8.57;5.20;;;;;;;;;;4993742;28;20473;-69
2022/05/13 14:16:52;;;;;;;9.18;4.97;;;;;;;;;;4994074;28;20129;-72
2022/05/13 14:19:22;;;;;;;9.13;5.55;;;;;;;;;;4993274;28;20396;-71
2022/05/13 14:21:58;;;;;;;10.23;6.25;;;;;;;;;;4993495;28;20054;-69
2022/05/13 14:24:35;;;;;;;8.80;5.80;;;;;;;;;;4993110;28;20097;-70
2022/05/13 14:27:10;;;;;;;10.32;5.70;;;;;;;;;;4992978;28;20054;-70
2022/05/13 14:29:38;;;;;;;8.18;5.28;;;;;;;;;;4992954;28;20082;-68
2022/05/13 14:32:08;;;;;;;10.32;6.38;;;;;;;;;;4993031;28;20047;-70
2022/05/13 14:34:36;;;;;;;8.30;5.57;;;;;;;;;;4992842;28;20134;-69
2022/05/13 14:37:08;;;;;;;9.45;5.50;;;;;;;;;;4993200;28;20503;-70
2022/05/13 14:39:51;;;;;;;9.35;5.57;;;;;;;;;;4992925;28;20486;-70
2022/05/13 14:42:31;;;;;;;8.75;5.75;;;;;;;;;;4992946;28;20046;-71
2022/05/13 14:45:00;;;;;;;9.68;5.80;;;;;;;;;;4992541;28;20046;-71
2022/05/13 14:47:36;;;;;;;7.65;5.40;;;;;;;;;;4992855;28;20064;-71
2022/05/13 14:50:16;;;;;;;11.60;5.80;;;;;;;;;;4993134;28;20397;-70
2022/05/13 14:52:46;;;;;;;;;;;;;;;;;;4993370;28;20050;-68
2022/05/13 14:55:23;;;;;;;8.07;5.60;;;;;;;;;;4992655;28;20012;-69
2022/05/13 14:57:50;;;;;;;9.25;5.50;;;;;;;;;;4993108;28;20508;-71
2022/05/13 15:00:20;;;;;;;9.32;5.93;;;;;;;;;;4992588;28;20053;-70
2022/05/13 15:02:58;;;;;;;7.75;5.78;;;;;;;;;;4992717;28;20507;-71
2022/05/13 15:05:32;;;;;;;9.75;5.88;;;;;;;;;;4993038;28;20145;-70
2022/05/13 15:08:01;;;;;;;8.13;5.20;;;;;;;;;;4992703;28;20050;-70
2022/05/13 15:10:29;;;;;;;9.05;5.80;;;;;;;;;;4992714;28;20054;-70
2022/05/13 15:12:56;;;;;;;9.90;5.90;;;;;;;;;;4992758;28;20065;-70
2022/05/13 15:15:26;;;;;;;8.13;6.00;;;;;;;;;;4992639;28;20084;-69
2022/05/13 15:17:55;;;;;;;9.00;5.73;;;;;;;;;;4992446;28;20133;-70
2022/05/13 15:20:23;;;;;;;10.50;6.00;;;;;;;;;;4992314;28;20046;-70
2022/05/13 15:22:53;;;;;;;11.80;5.97;;;;;;;;;;4992245;28;20271;-71
2022/05/13 15:25:22;;;;;;;10.90;6.15;;;;;;;;;;4992309;28;20047;-70
2022/05/13 15:27:50;;;;;;;6.90;5.35;;;;;;;;;;4992240;28;20046;-70
2022/05/13 15:30:18;;;;;;;9.85;6.10;;;;;;;;;;4994901;28;20462;-70
2022/05/13 15:32:47;;;;;;;10.27;5.82;;;;;;;;;;4996402;28;20419;-71